Cheboygan, MI (49721)

3:17 PM EST on December 06, 2016 (GMT -0500)
Wildcat North | | Change Station

Elev 640 ft 45.58 °N, 84.46 °W | Updated 10 seconds ago

Clear
Clear
42.4 °F
Feels Like 36 °F
N
11.0
Wind Variable Wind from SSE
Gusts 12.0 mph

Today
High -- | Low -- °F
--% Chance of Precip.
Yesterday
High -- | Low -- °F
Precip. -- in
Pressure 29.69 in
Visibility 10.0 miles
Clouds Clear
Windchill 36 °F
Dew Point 35 °F
Humidity 75%
Rainfall 0.18 in
Snow Depth Not available.
8:04 AM 4:54 PM
Waxing Crescent, 44% visible
METAR KSLH 061953Z AUTO 13014G19KT 10SM CLR 05/00 A2969 RMK AO2 T00551005
Pressure 29.69 in
Visibility 10.0 miles
Clouds Clear
Windchill 36 °F
Dew Point 35 °F
Humidity 75%
Rainfall 0.18 in
Snow Depth Not available.
8:04 AM 4:54 PM
Waxing Crescent, 44% visible
METAR KSLH 061953Z AUTO 13014G19KT 10SM CLR 05/00 A2969 RMK AO2 T00551005

10-Day Weather Forecast

Almanac

Astronomy

Dec. 06, 2016 Rise Set
Actual Time
Civil Twilight
Nautical Twilight
Astronomical Twilight
Moon
Length of Visible Light
Length of Day
Tomorrow will be .
, % of the Moon is Illuminated

Today's Extremes

State Highs State Lows

Community

WunderPhotos

Upload Photos

1,956,022 photos uploaded!

WunderBlog® & News

Nearby

Air Quality

  Air Quality AQ Index Pollutant
Not available.

Snow Depth

Station Depth Elevation

Earthquake Activity

City Distance Mag. Time & Date
Minimum magnitude displayed is 2.5.

Coastal Water Temperatures

Place Temperature

Stations

Nearby Weather Stations

Station Location Temp. Windchill Dew Point Humidity Wind Precip. Elev Updated Type
                   

Watches & Warnings

There are currently no watches in effect.